sensor_id;sensor_type;location;lat;lon;timestamp;temperature;humidity
35313;DHT22;21425;50.454;30.466;2023-02-22T00:00:15;-0.30;99.90
35313;DHT22;21425;50.454;30.466;2023-02-22T00:02:48;-0.30;99.90
35313;DHT22;21425;50.454;30.466;2023-02-22T00:05:15;-0.30;99.90
35313;DHT22;21425;50.454;30.466;2023-02-22T00:07:45;-0.30;99.90
35313;DHT22;21425;50.454;30.466;2023-02-22T00:10:11;-0.40;99.90
35313;DHT22;21425;50.454;30.466;2023-02-22T00:12:40;-0.30;99.90
35313;DHT22;21425;50.454;30.466;2023-02-22T00:15:06;-0.40;99.90
35313;DHT22;21425;50.454;30.466;2023-02-22T00:17:32;-0.40;99.90
35313;DHT22;21425;50.454;30.466;2023-02-22T00:19:58;-0.50;99.90
35313;DHT22;21425;50.454;30.466;2023-02-22T00:22:24;-0.50;99.90
35313;DHT22;21425;50.454;30.466;2023-02-22T00:24:49;-0.30;99.90
35313;DHT22;21425;50.454;30.466;2023-02-22T00:27:15;-0.40;99.90
35313;DHT22;21425;50.454;30.466;2023-02-22T00:29:45;-0.50;99.90
35313;DHT22;21425;50.454;30.466;2023-02-22T00:32:11;-0.60;99.90
35313;DHT22;21425;50.454;30.466;2023-02-22T00:34:36;-0.20;99.90
35313;DHT22;21425;50.454;30.466;2023-02-22T00:37:02;-0.50;99.90
35313;DHT22;21425;50.454;30.466;2023-02-22T00:39:29;-0.50;99.90
35313;DHT22;21425;50.454;30.466;2023-02-22T00:41:55;-0.30;99.90
35313;DHT22;21425;50.454;30.466;2023-02-22T00:44:20;-0.40;99.90
35313;DHT22;21425;50.454;30.466;2023-02-22T00:46:46;0.00;99.90
35313;DHT22;21425;50.454;30.466;2023-02-22T00:49:12;-0.40;99.90
35313;DHT22;21425;50.454;30.466;2023-02-22T00:51:37;-0.40;99.90
35313;DHT22;21425;50.454;30.466;2023-02-22T00:54:03;-0.40;99.90
35313;DHT22;21425;50.454;30.466;2023-02-22T00:56:32;-0.40;99.90
35313;DHT22;21425;50.454;30.466;2023-02-22T00:58:58;-0.40;99.90
35313;DHT22;21425;50.454;30.466;2023-02-22T01:01:26;0.00;99.90
35313;DHT22;21425;50.454;30.466;2023-02-22T01:03:52;-0.50;99.90
35313;DHT22;21425;50.454;30.466;2023-02-22T01:06:17;0.10;99.90
35313;DHT22;21425;50.454;30.466;2023-02-22T01:08:46;-0.60;99.90
35313;DHT22;21425;50.454;30.466;2023-02-22T01:11:14;-0.70;99.90
35313;DHT22;21425;50.454;30.466;2023-02-22T01:13:40;-0.80;99.90
35313;DHT22;21425;50.454;30.466;2023-02-22T01:16:05;-0.70;99.90
35313;DHT22;21425;50.454;30.466;2023-02-22T01:18:34;-0.70;99.90
35313;DHT22;21425;50.454;30.466;2023-02-22T01:21:00;-0.60;99.90
35313;DHT22;21425;50.454;30.466;2023-02-22T01:23:26;-0.70;99.90
35313;DHT22;21425;50.454;30.466;2023-02-22T01:25:52;0.40;99.90
35313;DHT22;21425;50.454;30.466;2023-02-22T01:28:18;-0.70;99.90
35313;DHT22;21425;50.454;30.466;2023-02-22T01:30:44;-0.20;99.90
35313;DHT22;21425;50.454;30.466;2023-02-22T01:33:09;-0.60;99.90
35313;DHT22;21425;50.454;30.466;2023-02-22T01:35:38;-0.70;99.90
35313;DHT22;21425;50.454;30.466;2023-02-22T01:38:08;-0.70;99.90
35313;DHT22;21425;50.454;30.466;2023-02-22T01:40:39;-0.70;99.90
35313;DHT22;21425;50.454;30.466;2023-02-22T01:43:26;-0.70;99.90
35313;DHT22;21425;50.454;30.466;2023-02-22T01:51:18;-0.80;99.90
35313;DHT22;21425;50.454;30.466;2023-02-22T01:56:36;-0.80;99.90
35313;DHT22;21425;50.454;30.466;2023-02-22T01:59:05;-0.90;99.90
35313;DHT22;21425;50.454;30.466;2023-02-22T02:01:32;0.30;99.90
35313;DHT22;21425;50.454;30.466;2023-02-22T02:04:01;-0.70;99.90
35313;DHT22;21425;50.454;30.466;2023-02-22T02:06:31;-0.80;99.90
35313;DHT22;21425;50.454;30.466;2023-02-22T02:09:13;-0.70;99.90
35313;DHT22;21425;50.454;30.466;2023-02-22T02:11:40;-0.80;99.90
35313;DHT22;21425;50.454;30.466;2023-02-22T02:14:08;-0.80;99.90
35313;DHT22;21425;50.454;30.466;2023-02-22T02:16:46;-0.90;99.90
35313;DHT22;21425;50.454;30.466;2023-02-22T02:19:25;-0.50;99.90
35313;DHT22;21425;50.454;30.466;2023-02-22T02:36:15;-1.00;99.90
35313;DHT22;21425;50.454;30.466;2023-02-22T02:41:27;-0.90;99.90
35313;DHT22;21425;50.454;30.466;2023-02-22T02:44:00;-0.90;99.90
35313;DHT22;21425;50.454;30.466;2023-02-22T02:46:32;-0.80;99.90
35313;DHT22;21425;50.454;30.466;2023-02-22T02:49:02;-0.90;99.90
35313;DHT22;21425;50.454;30.466;2023-02-22T02:51:35;-1.10;99.90
35313;DHT22;21425;50.454;30.466;2023-02-22T02:54:02;-0.90;99.90
35313;DHT22;21425;50.454;30.466;2023-02-22T02:56:28;-0.90;99.90
35313;DHT22;21425;50.454;30.466;2023-02-22T02:58:55;-0.80;99.90
35313;DHT22;21425;50.454;30.466;2023-02-22T03:01:49;-0.50;99.90
35313;DHT22;21425;50.454;30.466;2023-02-22T03:04:20;-1.10;99.90
35313;DHT22;21425;50.454;30.466;2023-02-22T03:18:49;-1.00;99.90
35313;DHT22;21425;50.454;30.466;2023-02-22T03:21:45;-1.00;99.90
35313;DHT22;21425;50.454;30.466;2023-02-22T03:24:24;-1.00;99.90
35313;DHT22;21425;50.454;30.466;2023-02-22T03:27:02;-0.90;99.90
35313;DHT22;21425;50.454;30.466;2023-02-22T03:29:30;-1.00;99.90
35313;DHT22;21425;50.454;30.466;2023-02-22T03:32:01;-0.60;99.90
35313;DHT22;21425;50.454;30.466;2023-02-22T03:34:33;-1.00;99.90
35313;DHT22;21425;50.454;30.466;2023-02-22T03:37:04;-0.90;99.90
35313;DHT22;21425;50.454;30.466;2023-02-22T03:39:35;-0.90;99.90
35313;DHT22;21425;50.454;30.466;2023-02-22T03:42:08;-1.00;99.90
35313;DHT22;21425;50.454;30.466;2023-02-22T03:44:38;-1.10;99.90
35313;DHT22;21425;50.454;30.466;2023-02-22T03:47:08;-1.10;99.90
35313;DHT22;21425;50.454;30.466;2023-02-22T03:49:41;-1.10;99.90
35313;DHT22;21425;50.454;30.466;2023-02-22T03:52:09;-1.10;99.90
35313;DHT22;21425;50.454;30.466;2023-02-22T03:54:37;-3.90;99.90
35313;DHT22;21425;50.454;30.466;2023-02-22T03:57:12;-0.90;99.90
35313;DHT22;21425;50.454;30.466;2023-02-22T03:59:40;-1.30;99.90
35313;DHT22;21425;50.454;30.466;2023-02-22T04:02:06;-1.30;99.90
35313;DHT22;21425;50.454;30.466;2023-02-22T04:04:31;-0.40;99.90
35313;DHT22;21425;50.454;30.466;2023-02-22T04:06:57;-1.70;99.90
35313;DHT22;21425;50.454;30.466;2023-02-22T04:09:23;-1.70;99.90
35313;DHT22;21425;50.454;30.466;2023-02-22T04:11:48;-1.70;99.90
35313;DHT22;21425;50.454;30.466;2023-02-22T04:14:14;-1.70;99.90
35313;DHT22;21425;50.454;30.466;2023-02-22T04:16:40;-1.70;99.90
35313;DHT22;21425;50.454;30.466;2023-02-22T04:19:05;-1.90;99.90
35313;DHT22;21425;50.454;30.466;2023-02-22T04:21:31;-1.50;99.90
35313;DHT22;21425;50.454;30.466;2023-02-22T04:23:57;-1.70;99.90
35313;DHT22;21425;50.454;30.466;2023-02-22T04:26:23;-1.80;99.90
35313;DHT22;21425;50.454;30.466;2023-02-22T04:28:48;-1.90;99.90
35313;DHT22;21425;50.454;30.466;2023-02-22T04:31:15;-1.30;99.90
35313;DHT22;21425;50.454;30.466;2023-02-22T04:33:40;-1.70;99.90
35313;DHT22;21425;50.454;30.466;2023-02-22T04:36:06;-1.50;99.90
35313;DHT22;21425;50.454;30.466;2023-02-22T04:38:32;-1.70;99.90
35313;DHT22;21425;50.454;30.466;2023-02-22T04:40:58;-1.90;99.90
35313;DHT22;21425;50.454;30.466;2023-02-22T04:43:23;-1.90;99.90
35313;DHT22;21425;50.454;30.466;2023-02-22T04:45:49;-1.80;99.90
35313;DHT22;21425;50.454;30.466;2023-02-22T04:48:15;-1.60;99.90
35313;DHT22;21425;50.454;30.466;2023-02-22T04:50:41;-2.90;99.90
35313;DHT22;21425;50.454;30.466;2023-02-22T04:53:07;-1.80;99.90
35313;DHT22;21425;50.454;30.466;2023-02-22T04:55:32;-1.80;99.90
35313;DHT22;21425;50.454;30.466;2023-02-22T04:57:58;-1.80;99.90
35313;DHT22;21425;50.454;30.466;2023-02-22T05:00:24;-1.80;99.90
35313;DHT22;21425;50.454;30.466;2023-02-22T05:02:50;-1.80;99.90
35313;DHT22;21425;50.454;30.466;2023-02-22T05:05:17;-0.50;99.90
35313;DHT22;21425;50.454;30.466;2023-02-22T05:07:43;-1.80;99.90
35313;DHT22;21425;50.454;30.466;2023-02-22T05:10:10;-1.90;99.90
35313;DHT22;21425;50.454;30.466;2023-02-22T05:12:36;-2.00;99.90
35313;DHT22;21425;50.454;30.466;2023-02-22T05:15:04;-2.00;99.90
35313;DHT22;21425;50.454;30.466;2023-02-22T05:17:29;-1.90;99.90
35313;DHT22;21425;50.454;30.466;2023-02-22T05:19:55;-2.00;99.90
35313;DHT22;21425;50.454;30.466;2023-02-22T05:22:20;-1.90;99.90
35313;DHT22;21425;50.454;30.466;2023-02-22T05:24:46;-1.90;99.90
35313;DHT22;21425;50.454;30.466;2023-02-22T05:27:12;-2.20;99.90
35313;DHT22;21425;50.454;30.466;2023-02-22T05:29:37;-1.80;99.90
35313;DHT22;21425;50.454;30.466;2023-02-22T05:32:04;-1.80;99.90
35313;DHT22;21425;50.454;30.466;2023-02-22T05:34:31;-1.80;99.90
35313;DHT22;21425;50.454;30.466;2023-02-22T05:36:56;-1.90;99.90
35313;DHT22;21425;50.454;30.466;2023-02-22T05:39:22;-0.90;99.90
35313;DHT22;21425;50.454;30.466;2023-02-22T05:41:47;-2.00;99.90
35313;DHT22;21425;50.454;30.466;2023-02-22T05:44:13;-2.30;99.90
35313;DHT22;21425;50.454;30.466;2023-02-22T05:46:39;-2.30;99.90
35313;DHT22;21425;50.454;30.466;2023-02-22T05:49:04;-2.10;99.90
35313;DHT22;21425;50.454;30.466;2023-02-22T05:51:30;-2.10;99.90
35313;DHT22;21425;50.454;30.466;2023-02-22T05:53:56;-2.20;99.90
35313;DHT22;21425;50.454;30.466;2023-02-22T05:56:23;-2.20;99.90
35313;DHT22;21425;50.454;30.466;2023-02-22T05:58:49;-2.20;99.90
35313;DHT22;21425;50.454;30.466;2023-02-22T06:01:15;-1.40;99.90
35313;DHT22;21425;50.454;30.466;2023-02-22T06:03:41;-2.50;99.90
35313;DHT22;21425;50.454;30.466;2023-02-22T06:06:06;-1.60;99.90
35313;DHT22;21425;50.454;30.466;2023-02-22T06:08:32;-2.30;99.90
35313;DHT22;21425;50.454;30.466;2023-02-22T06:13:23;-1.70;99.90
35313;DHT22;21425;50.454;30.466;2023-02-22T06:15:49;-2.50;99.90
35313;DHT22;21425;50.454;30.466;2023-02-22T06:18:14;-2.40;99.90
35313;DHT22;21425;50.454;30.466;2023-02-22T06:20:40;-1.70;99.90
35313;DHT22;21425;50.454;30.466;2023-02-22T06:23:06;-2.80;99.90
35313;DHT22;21425;50.454;30.466;2023-02-22T06:25:31;-2.20;99.90
35313;DHT22;21425;50.454;30.466;2023-02-22T06:27:58;-2.50;99.90
35313;DHT22;21425;50.454;30.466;2023-02-22T06:30:25;-2.40;99.90
35313;DHT22;21425;50.454;30.466;2023-02-22T06:32:51;-2.00;99.90
35313;DHT22;21425;50.454;30.466;2023-02-22T06:35:17;-2.50;99.90
35313;DHT22;21425;50.454;30.466;2023-02-22T06:37:43;-1.80;99.90
35313;DHT22;21425;50.454;30.466;2023-02-22T06:40:09;-3.20;99.90
35313;DHT22;21425;50.454;30.466;2023-02-22T06:42:36;-2.70;99.90
35313;DHT22;21425;50.454;30.466;2023-02-22T06:47:27;-2.60;99.90
35313;DHT22;21425;50.454;30.466;2023-02-22T06:49:54;-2.70;99.90
35313;DHT22;21425;50.454;30.466;2023-02-22T06:52:20;-1.70;99.90
35313;DHT22;21425;50.454;30.466;2023-02-22T06:54:47;-1.60;99.90
35313;DHT22;21425;50.454;30.466;2023-02-22T06:57:13;-2.50;99.90
35313;DHT22;21425;50.454;30.466;2023-02-22T06:59:38;-2.40;99.90
35313;DHT22;21425;50.454;30.466;2023-02-22T07:02:05;-2.40;99.90
35313;DHT22;21425;50.454;30.466;2023-02-22T07:09:22;-2.50;99.90
35313;DHT22;21425;50.454;30.466;2023-02-22T07:11:48;-2.60;99.90
35313;DHT22;21425;50.454;30.466;2023-02-22T07:14:15;-2.50;99.90
35313;DHT22;21425;50.454;30.466;2023-02-22T07:16:41;-2.60;99.90
35313;DHT22;21425;50.454;30.466;2023-02-22T07:19:07;-2.40;99.90
35313;DHT22;21425;50.454;30.466;2023-02-22T07:21:32;-1.60;99.90
35313;DHT22;21425;50.454;30.466;2023-02-22T07:23:58;-1.30;99.90
35313;DHT22;21425;50.454;30.466;2023-02-22T07:26:24;-2.30;99.90
35313;DHT22;21425;50.454;30.466;2023-02-22T07:28:51;-2.20;99.90
35313;DHT22;21425;50.454;30.466;2023-02-22T07:31:17;-1.80;99.90
35313;DHT22;21425;50.454;30.466;2023-02-22T07:33:44;-2.90;99.90
35313;DHT22;21425;50.454;30.466;2023-02-22T07:36:10;-2.70;99.90
35313;DHT22;21425;50.454;30.466;2023-02-22T07:38:38;-2.40;99.90
35313;DHT22;21425;50.454;30.466;2023-02-22T07:41:03;-2.10;99.90
35313;DHT22;21425;50.454;30.466;2023-02-22T07:43:29;-1.80;99.90
35313;DHT22;21425;50.454;30.466;2023-02-22T07:45:57;-0.90;99.90
35313;DHT22;21425;50.454;30.466;2023-02-22T07:48:25;-1.90;99.90
35313;DHT22;21425;50.454;30.466;2023-02-22T07:50:51;-0.60;99.90
35313;DHT22;21425;50.454;30.466;2023-02-22T07:53:28;-1.50;99.90
35313;DHT22;21425;50.454;30.466;2023-02-22T07:55:58;-2.00;99.90
35313;DHT22;21425;50.454;30.466;2023-02-22T07:58:27;-1.30;99.90
35313;DHT22;21425;50.454;30.466;2023-02-22T08:00:53;-1.70;99.90
35313;DHT22;21425;50.454;30.466;2023-02-22T08:03:21;-1.50;99.90
35313;DHT22;21425;50.454;30.466;2023-02-22T08:05:49;-1.00;99.90
35313;DHT22;21425;50.454;30.466;2023-02-22T08:08:15;-2.10;99.90
35313;DHT22;21425;50.454;30.466;2023-02-22T08:10:42;-1.00;99.90
35313;DHT22;21425;50.454;30.466;2023-02-22T08:13:07;-1.50;99.90
35313;DHT22;21425;50.454;30.466;2023-02-22T08:15:35;-2.10;99.90
35313;DHT22;21425;50.454;30.466;2023-02-22T08:18:02;-2.40;99.90
35313;DHT22;21425;50.454;30.466;2023-02-22T08:20:29;-1.90;99.90
35313;DHT22;21425;50.454;30.466;2023-02-22T08:22:55;-1.90;99.90
35313;DHT22;21425;50.454;30.466;2023-02-22T08:25:25;-2.00;99.90
35313;DHT22;21425;50.454;30.466;2023-02-22T08:27:51;-2.00;99.90
35313;DHT22;21425;50.454;30.466;2023-02-22T08:30:23;-2.20;99.90
35313;DHT22;21425;50.454;30.466;2023-02-22T08:32:49;-1.10;99.90
35313;DHT22;21425;50.454;30.466;2023-02-22T08:35:16;-1.90;99.90
35313;DHT22;21425;50.454;30.466;2023-02-22T08:37:43;-1.80;99.90
35313;DHT22;21425;50.454;30.466;2023-02-22T08:40:10;-1.60;99.90
35313;DHT22;21425;50.454;30.466;2023-02-22T08:42:35;-1.60;99.90
35313;DHT22;21425;50.454;30.466;2023-02-22T08:45:01;-2.10;99.90
35313;DHT22;21425;50.454;30.466;2023-02-22T08:47:26;-2.10;99.90
35313;DHT22;21425;50.454;30.466;2023-02-22T08:52:19;-1.70;99.90
35313;DHT22;21425;50.454;30.466;2023-02-22T08:54:46;-1.00;99.90
35313;DHT22;21425;50.454;30.466;2023-02-22T08:57:12;-2.10;99.90
35313;DHT22;21425;50.454;30.466;2023-02-22T09:02:05;-1.10;99.90
35313;DHT22;21425;50.454;30.466;2023-02-22T09:04:31;-0.10;99.90
35313;DHT22;21425;50.454;30.466;2023-02-22T09:06:56;-1.30;99.90
35313;DHT22;21425;50.454;30.466;2023-02-22T09:09:22;-1.20;99.90
35313;DHT22;21425;50.454;30.466;2023-02-22T09:11:48;-1.60;99.90
35313;DHT22;21425;50.454;30.466;2023-02-22T09:16:41;-0.60;99.90
35313;DHT22;21425;50.454;30.466;2023-02-22T09:19:07;-1.90;99.90
35313;DHT22;21425;50.454;30.466;2023-02-22T09:26:33;-1.70;99.90
35313;DHT22;21425;50.454;30.466;2023-02-22T09:28:58;-1.40;99.90
35313;DHT22;21425;50.454;30.466;2023-02-22T09:31:24;-1.70;99.90
35313;DHT22;21425;50.454;30.466;2023-02-22T09:33:49;-0.10;99.90
35313;DHT22;21425;50.454;30.466;2023-02-22T09:36:16;-0.50;99.90
35313;DHT22;21425;50.454;30.466;2023-02-22T09:38:41;-1.10;99.90
35313;DHT22;21425;50.454;30.466;2023-02-22T09:41:17;-1.10;99.90
35313;DHT22;21425;50.454;30.466;2023-02-22T09:43:51;-0.90;99.90
35313;DHT22;21425;50.454;30.466;2023-02-22T09:46:29;-1.50;99.90
35313;DHT22;21425;50.454;30.466;2023-02-22T09:49:19;-1.40;99.90
35313;DHT22;21425;50.454;30.466;2023-02-22T09:51:57;-1.80;99.90
35313;DHT22;21425;50.454;30.466;2023-02-22T09:54:38;-1.80;99.90
35313;DHT22;21425;50.454;30.466;2023-02-22T09:57:09;-1.60;99.90
35313;DHT22;21425;50.454;30.466;2023-02-22T09:59:45;-1.40;99.90
35313;DHT22;21425;50.454;30.466;2023-02-22T10:02:34;0.10;99.90
35313;DHT22;21425;50.454;30.466;2023-02-22T10:05:17;-1.40;99.90
35313;DHT22;21425;50.454;30.466;2023-02-22T10:08:01;-1.20;99.90
35313;DHT22;21425;50.454;30.466;2023-02-22T10:10:35;0.40;99.90
35313;DHT22;21425;50.454;30.466;2023-02-22T10:15:58;-0.50;99.90
35313;DHT22;21425;50.454;30.466;2023-02-22T10:18:48;0.00;99.90
35313;DHT22;21425;50.454;30.466;2023-02-22T10:26:24;-0.70;99.90
35313;DHT22;21425;50.454;30.466;2023-02-22T10:31:44;-1.40;99.90
35313;DHT22;21425;50.454;30.466;2023-02-22T10:34:16;-0.70;99.90
35313;DHT22;21425;50.454;30.466;2023-02-22T10:36:47;-0.60;99.90
35313;DHT22;21425;50.454;30.466;2023-02-22T10:39:33;-1.20;99.90
35313;DHT22;21425;50.454;30.466;2023-02-22T10:42:06;-1.40;99.90
35313;DHT22;21425;50.454;30.466;2023-02-22T10:44:34;-0.70;99.90
35313;DHT22;21425;50.454;30.466;2023-02-22T10:47:02;-0.50;99.90
35313;DHT22;21425;50.454;30.466;2023-02-22T10:49:35;0.00;99.90
35313;DHT22;21425;50.454;30.466;2023-02-22T10:52:03;-0.30;99.90
35313;DHT22;21425;50.454;30.466;2023-02-22T10:54:33;0.20;99.90
35313;DHT22;21425;50.454;30.466;2023-02-22T10:57:00;0.30;99.90
35313;DHT22;21425;50.454;30.466;2023-02-22T10:59:31;0.60;99.90
35313;DHT22;21425;50.454;30.466;2023-02-22T11:01:59;0.50;99.90
35313;DHT22;21425;50.454;30.466;2023-02-22T11:04:25;0.30;99.90
35313;DHT22;21425;50.454;30.466;2023-02-22T11:09:24;0.50;99.90
35313;DHT22;21425;50.454;30.466;2023-02-22T11:12:09;0.10;99.90
35313;DHT22;21425;50.454;30.466;2023-02-22T11:14:35;-0.20;99.90
35313;DHT22;21425;50.454;30.466;2023-02-22T11:17:05;-0.20;99.90
35313;DHT22;21425;50.454;30.466;2023-02-22T11:19:32;0.00;99.90
35313;DHT22;21425;50.454;30.466;2023-02-22T11:24:47;0.20;99.90
35313;DHT22;21425;50.454;30.466;2023-02-22T11:38:21;0.00;99.90
35313;DHT22;21425;50.454;30.466;2023-02-22T11:43:39;-0.10;99.90
35313;DHT22;21425;50.454;30.466;2023-02-22T11:46:30;-0.20;99.90
35313;DHT22;21425;50.454;30.466;2023-02-22T11:48:57;-0.30;99.90
35313;DHT22;21425;50.454;30.466;2023-02-22T11:57:10;0.30;99.90
35313;DHT22;21425;50.454;30.466;2023-02-22T12:02:37;0.30;99.90
35313;DHT22;21425;50.454;30.466;2023-02-22T12:05:49;0.10;99.90
35313;DHT22;21425;50.454;30.466;2023-02-22T12:11:16;1.40;99.90
35313;DHT22;21425;50.454;30.466;2023-02-22T12:14:06;0.60;99.90
35313;DHT22;21425;50.454;30.466;2023-02-22T12:19:48;0.70;99.90
35313;DHT22;21425;50.454;30.466;2023-02-22T12:22:21;0.70;99.90
35313;DHT22;21425;50.454;30.466;2023-02-22T12:25:02;0.80;99.90
35313;DHT22;21425;50.454;30.466;2023-02-22T12:27:52;2.90;99.00
35313;DHT22;21425;50.454;30.466;2023-02-22T12:30:34;1.50;98.50
35313;DHT22;21425;50.454;30.466;2023-02-22T12:33:15;2.40;97.50
35313;DHT22;21425;50.454;30.466;2023-02-22T12:35:52;2.20;98.10
35313;DHT22;21425;50.454;30.466;2023-02-22T12:38:35;1.20;97.90
35313;DHT22;21425;50.454;30.466;2023-02-22T12:41:32;2.00;98.00
35313;DHT22;21425;50.454;30.466;2023-02-22T12:44:13;0.60;99.90
35313;DHT22;21425;50.454;30.466;2023-02-22T12:46:45;-0.10;99.90
35313;DHT22;21425;50.454;30.466;2023-02-22T13:09:04;0.10;99.90
35313;DHT22;21425;50.454;30.466;2023-02-22T13:11:48;0.10;99.90
35313;DHT22;21425;50.454;30.466;2023-02-22T13:21:59;0.10;99.90
35313;DHT22;21425;50.454;30.466;2023-02-22T13:27:26;-0.60;99.90
35313;DHT22;21425;50.454;30.466;2023-02-22T13:29:59;0.10;99.90
35313;DHT22;21425;50.454;30.466;2023-02-22T13:43:39;-0.50;99.90
35313;DHT22;21425;50.454;30.466;2023-02-22T13:51:45;-0.40;99.90
35313;DHT22;21425;50.454;30.466;2023-02-22T13:54:39;0.90;99.90
35313;DHT22;21425;50.454;30.466;2023-02-22T13:57:26;-0.10;99.90
35313;DHT22;21425;50.454;30.466;2023-02-22T14:03:17;0.40;99.90
35313;DHT22;21425;50.454;30.466;2023-02-22T14:05:52;0.10;99.90
35313;DHT22;21425;50.454;30.466;2023-02-22T14:16:22;-0.70;99.90
35313;DHT22;21425;50.454;30.466;2023-02-22T14:18:59;-0.60;99.90
35313;DHT22;21425;50.454;30.466;2023-02-22T14:21:25;-0.80;99.90
35313;DHT22;21425;50.454;30.466;2023-02-22T14:23:55;-0.60;99.90
35313;DHT22;21425;50.454;30.466;2023-02-22T14:28:56;-0.30;99.90
35313;DHT22;21425;50.454;30.466;2023-02-22T14:39:22;0.20;99.90
35313;DHT22;21425;50.454;30.466;2023-02-22T14:42:29;-1.10;99.90
35313;DHT22;21425;50.454;30.466;2023-02-22T14:50:22;-1.00;99.90
35313;DHT22;21425;50.454;30.466;2023-02-22T14:55:53;-0.30;99.90
35313;DHT22;21425;50.454;30.466;2023-02-22T14:58:36;0.30;99.90
35313;DHT22;21425;50.454;30.466;2023-02-22T15:01:24;-1.30;99.90
35313;DHT22;21425;50.454;30.466;2023-02-22T15:03:50;-1.00;99.90
35313;DHT22;21425;50.454;30.466;2023-02-22T15:06:24;-1.10;99.90
35313;DHT22;21425;50.454;30.466;2023-02-22T15:11:31;-1.20;99.90
35313;DHT22;21425;50.454;30.466;2023-02-22T15:13:59;-1.20;99.90
35313;DHT22;21425;50.454;30.466;2023-02-22T15:16:32;-0.80;99.90
35313;DHT22;21425;50.454;30.466;2023-02-22T15:19:02;-1.00;99.90
35313;DHT22;21425;50.454;30.466;2023-02-22T15:21:29;-1.20;99.90
35313;DHT22;21425;50.454;30.466;2023-02-22T15:24:04;-0.60;99.90
35313;DHT22;21425;50.454;30.466;2023-02-22T15:26:41;-0.10;99.90
35313;DHT22;21425;50.454;30.466;2023-02-22T15:29:17;-0.90;99.90
35313;DHT22;21425;50.454;30.466;2023-02-22T15:31:42;-0.30;99.90
35313;DHT22;21425;50.454;30.466;2023-02-22T15:36:40;-1.90;99.90
35313;DHT22;21425;50.454;30.466;2023-02-22T15:39:24;-1.50;99.90
35313;DHT22;21425;50.454;30.466;2023-02-22T15:42:07;-0.70;99.90
35313;DHT22;21425;50.454;30.466;2023-02-22T15:44:35;-1.70;99.90
35313;DHT22;21425;50.454;30.466;2023-02-22T15:47:02;-1.70;99.90
35313;DHT22;21425;50.454;30.466;2023-02-22T15:49:27;-1.70;99.90
35313;DHT22;21425;50.454;30.466;2023-02-22T15:52:04;-2.50;99.90
35313;DHT22;21425;50.454;30.466;2023-02-22T15:54:43;-0.90;99.90
35313;DHT22;21425;50.454;30.466;2023-02-22T15:57:13;-0.30;99.90
35313;DHT22;21425;50.454;30.466;2023-02-22T15:59:42;-0.50;99.90
35313;DHT22;21425;50.454;30.466;2023-02-22T16:02:33;-1.80;99.90
35313;DHT22;21425;50.454;30.466;2023-02-22T16:05:03;-1.10;99.90
35313;DHT22;21425;50.454;30.466;2023-02-22T16:07:30;-1.10;99.90
35313;DHT22;21425;50.454;30.466;2023-02-22T16:09:56;-2.00;99.90
35313;DHT22;21425;50.454;30.466;2023-02-22T16:12:26;-1.90;99.90
35313;DHT22;21425;50.454;30.466;2023-02-22T16:14:52;-2.20;99.90
35313;DHT22;21425;50.454;30.466;2023-02-22T16:17:23;-2.00;99.90
35313;DHT22;21425;50.454;30.466;2023-02-22T16:19:53;-2.10;99.90
35313;DHT22;21425;50.454;30.466;2023-02-22T16:22:39;-2.00;99.90
35313;DHT22;21425;50.454;30.466;2023-02-22T16:25:29;-2.00;99.90
35313;DHT22;21425;50.454;30.466;2023-02-22T16:28:27;-2.20;99.90
35313;DHT22;21425;50.454;30.466;2023-02-22T16:30:56;-1.20;99.90
35313;DHT22;21425;50.454;30.466;2023-02-22T16:33:21;-2.30;99.90
35313;DHT22;21425;50.454;30.466;2023-02-22T16:35:47;-2.40;99.90
35313;DHT22;21425;50.454;30.466;2023-02-22T16:38:22;-2.20;99.90
35313;DHT22;21425;50.454;30.466;2023-02-22T16:40:50;-2.10;99.90
35313;DHT22;21425;50.454;30.466;2023-02-22T16:43:19;-2.10;99.90
35313;DHT22;21425;50.454;30.466;2023-02-22T16:50:46;-2.20;99.90
35313;DHT22;21425;50.454;30.466;2023-02-22T16:53:12;-2.30;99.90
35313;DHT22;21425;50.454;30.466;2023-02-22T16:55:42;-1.50;99.90
35313;DHT22;21425;50.454;30.466;2023-02-22T16:58:11;-2.30;99.90
35313;DHT22;21425;50.454;30.466;2023-02-22T17:00:37;-1.40;99.90
35313;DHT22;21425;50.454;30.466;2023-02-22T17:03:13;-2.30;99.90
35313;DHT22;21425;50.454;30.466;2023-02-22T17:05:38;-2.10;99.90
35313;DHT22;21425;50.454;30.466;2023-02-22T17:08:05;-2.30;99.90
35313;DHT22;21425;50.454;30.466;2023-02-22T17:10:31;-2.20;99.90
35313;DHT22;21425;50.454;30.466;2023-02-22T17:12:57;-1.60;99.90
35313;DHT22;21425;50.454;30.466;2023-02-22T17:15:28;-2.30;99.90
35313;DHT22;21425;50.454;30.466;2023-02-22T17:17:55;-1.50;99.90
35313;DHT22;21425;50.454;30.466;2023-02-22T17:20:22;-2.20;99.90
35313;DHT22;21425;50.454;30.466;2023-02-22T17:23:02;-2.30;99.90
35313;DHT22;21425;50.454;30.466;2023-02-22T17:25:37;-2.30;99.90
35313;DHT22;21425;50.454;30.466;2023-02-22T17:28:04;-2.30;99.90
35313;DHT22;21425;50.454;30.466;2023-02-22T17:30:30;-2.50;99.90
35313;DHT22;21425;50.454;30.466;2023-02-22T17:32:58;-2.30;99.90
35313;DHT22;21425;50.454;30.466;2023-02-22T17:35:29;-2.00;99.90
35313;DHT22;21425;50.454;30.466;2023-02-22T17:37:55;-2.30;99.90
35313;DHT22;21425;50.454;30.466;2023-02-22T17:40:22;-2.30;99.90
35313;DHT22;21425;50.454;30.466;2023-02-22T17:42:47;-2.30;99.90
35313;DHT22;21425;50.454;30.466;2023-02-22T17:45:22;-2.40;99.90
35313;DHT22;21425;50.454;30.466;2023-02-22T17:47:51;-2.30;99.90
35313;DHT22;21425;50.454;30.466;2023-02-22T17:50:18;-2.30;99.90
35313;DHT22;21425;50.454;30.466;2023-02-22T17:52:44;-2.30;99.90
35313;DHT22;21425;50.454;30.466;2023-02-22T17:55:11;-2.30;99.90
35313;DHT22;21425;50.454;30.466;2023-02-22T17:57:37;-2.30;99.90
35313;DHT22;21425;50.454;30.466;2023-02-22T18:00:05;-2.30;99.90
35313;DHT22;21425;50.454;30.466;2023-02-22T18:02:41;-2.30;99.90
35313;DHT22;21425;50.454;30.466;2023-02-22T18:05:12;-2.20;99.90
35313;DHT22;21425;50.454;30.466;2023-02-22T18:07:41;-1.80;99.90
35313;DHT22;21425;50.454;30.466;2023-02-22T18:10:07;-1.50;99.90
35313;DHT22;21425;50.454;30.466;2023-02-22T18:12:37;-2.40;99.90
35313;DHT22;21425;50.454;30.466;2023-02-22T18:15:03;-2.20;99.90
35313;DHT22;21425;50.454;30.466;2023-02-22T18:17:29;-2.20;99.90
35313;DHT22;21425;50.454;30.466;2023-02-22T18:19:55;-2.20;99.90
35313;DHT22;21425;50.454;30.466;2023-02-22T18:22:21;-1.80;99.90
35313;DHT22;21425;50.454;30.466;2023-02-22T18:24:46;-2.40;99.90
35313;DHT22;21425;50.454;30.466;2023-02-22T18:27:12;-1.80;99.90
35313;DHT22;21425;50.454;30.466;2023-02-22T18:29:39;-2.40;99.90
35313;DHT22;21425;50.454;30.466;2023-02-22T18:32:05;-2.40;99.90
35313;DHT22;21425;50.454;30.466;2023-02-22T18:34:36;-2.60;99.90
35313;DHT22;21425;50.454;30.466;2023-02-22T18:37:02;-2.50;99.90
35313;DHT22;21425;50.454;30.466;2023-02-22T18:39:30;-2.50;99.90
35313;DHT22;21425;50.454;30.466;2023-02-22T18:41:58;-2.50;99.90
35313;DHT22;21425;50.454;30.466;2023-02-22T18:44:23;-2.40;99.90